createdAt,value
2022-10-23T00:01:30.168Z,13.40
2022-10-23T00:04:11.291Z,13.40
2022-10-23T00:06:38.742Z,13.40
2022-10-23T00:09:07.776Z,13.30
2022-10-23T00:11:35.932Z,13.30
2022-10-23T00:14:05.446Z,13.30
2022-10-23T00:16:32.991Z,13.30
2022-10-23T00:18:59.881Z,13.30
2022-10-23T00:21:27.667Z,13.30
2022-10-23T00:23:54.604Z,13.30
2022-10-23T00:26:21.718Z,13.30
2022-10-23T00:28:51.173Z,13.30
2022-10-23T00:31:18.977Z,13.30
2022-10-23T00:33:46.780Z,13.30
2022-10-23T00:36:15.697Z,13.30
2022-10-23T00:38:42.607Z,13.30
2022-10-23T00:41:14.543Z,13.40
2022-10-23T00:44:01.409Z,13.30
2022-10-23T00:46:28.918Z,13.40
2022-10-23T00:48:56.773Z,13.40
2022-10-23T00:51:25.577Z,13.40
2022-10-23T00:54:06.553Z,13.40
2022-10-23T00:56:45.309Z,13.40
2022-10-23T00:59:12.377Z,13.40
2022-10-23T01:01:39.307Z,13.40
2022-10-23T01:04:09.914Z,13.40
2022-10-23T01:07:04.585Z,13.40
2022-10-23T01:09:55.107Z,13.50
2022-10-23T01:12:46.489Z,13.50
2022-10-23T01:15:19.529Z,13.50
2022-10-23T01:17:58.253Z,13.60
2022-10-23T01:20:30.977Z,13.50
2022-10-23T01:23:16.251Z,13.50
2022-10-23T01:26:01.650Z,13.50
2022-10-23T01:28:37.087Z,13.60
2022-10-23T01:31:10.778Z,13.50
2022-10-23T01:33:49.012Z,13.50
2022-10-23T01:36:19.252Z,13.50
2022-10-23T01:38:54.992Z,13.50
2022-10-23T01:41:33.874Z,13.50
2022-10-23T01:44:21.825Z,13.50
2022-10-23T01:46:51.675Z,13.40
2022-10-23T01:49:20.804Z,13.40
2022-10-23T01:51:53.248Z,13.40
2022-10-23T01:54:25.009Z,13.40
2022-10-23T01:56:52.847Z,13.40
2022-10-23T01:59:27.104Z,13.40
2022-10-23T02:01:57.048Z,13.40
2022-10-23T02:04:31.492Z,13.40
2022-10-23T02:06:58.506Z,13.40
2022-10-23T02:09:25.596Z,13.40
2022-10-23T02:12:03.535Z,13.40
2022-10-23T02:14:45.755Z,13.40
2022-10-23T02:17:23.909Z,13.40
2022-10-23T02:20:00.387Z,13.40
2022-10-23T02:22:33.755Z,13.40
2022-10-23T02:25:25.046Z,13.40
2022-10-23T02:27:55.222Z,13.30
2022-10-23T02:30:22.314Z,13.30
2022-10-23T02:32:52.380Z,13.30
2022-10-23T02:35:21.342Z,13.30
2022-10-23T02:37:59.895Z,13.20
2022-10-23T02:40:47.118Z,13.20
2022-10-23T02:43:38.598Z,13.10
2022-10-23T02:46:18.992Z,13.00
2022-10-23T02:49:01.019Z,13.00
2022-10-23T02:51:33.578Z,13.00
2022-10-23T02:54:41.299Z,12.90
2022-10-23T02:57:25.696Z,12.90
2022-10-23T03:00:05.829Z,12.90
2022-10-23T03:02:44.041Z,12.90
2022-10-23T03:05:15.859Z,12.90
2022-10-23T03:07:43.736Z,12.90
2022-10-23T03:10:11.096Z,12.90
2022-10-23T03:12:38.658Z,12.80
2022-10-23T03:15:07.105Z,12.90
2022-10-23T03:17:34.033Z,12.80
2022-10-23T03:20:00.926Z,12.90
2022-10-23T03:22:27.776Z,12.90
2022-10-23T03:24:54.581Z,12.90
2022-10-23T03:27:21.478Z,12.90
2022-10-23T03:29:48.401Z,12.90
2022-10-23T03:32:15.244Z,12.90
2022-10-23T03:34:42.575Z,12.90
2022-10-23T03:37:09.713Z,12.80
2022-10-23T03:39:36.677Z,12.80
2022-10-23T03:42:03.777Z,12.80
2022-10-23T03:44:31.227Z,12.80
2022-10-23T03:46:58.861Z,12.80
2022-10-23T03:49:25.762Z,12.80
2022-10-23T03:51:52.971Z,12.80
2022-10-23T03:54:25.097Z,12.70
2022-10-23T03:56:56.516Z,12.80
2022-10-23T03:59:24.480Z,12.70
2022-10-23T04:01:51.516Z,12.70
2022-10-23T04:04:18.550Z,12.70
2022-10-23T04:06:45.505Z,12.70
2022-10-23T04:11:39.314Z,12.70
2022-10-23T04:14:06.149Z,12.60
2022-10-23T04:16:33.202Z,12.60
2022-10-23T04:19:00.054Z,12.60
2022-10-23T04:21:26.914Z,12.60
2022-10-23T04:23:53.773Z,12.60
2022-10-23T04:26:20.643Z,12.60
2022-10-23T04:28:47.598Z,12.50
2022-10-23T04:31:14.534Z,12.50
2022-10-23T04:33:41.477Z,12.50
2022-10-23T04:36:08.842Z,12.50
2022-10-23T04:38:35.699Z,12.50
2022-10-23T04:41:02.619Z,12.50
2022-10-23T04:43:29.492Z,12.50
2022-10-23T04:45:56.346Z,12.50
2022-10-23T04:48:25.618Z,12.40
2022-10-23T04:50:57.547Z,12.40
2022-10-23T04:53:25.456Z,12.40
2022-10-23T04:55:54.552Z,12.40
2022-10-23T04:58:22.025Z,12.40
2022-10-23T05:00:49.888Z,12.30
2022-10-23T05:03:18.231Z,12.30
2022-10-23T05:05:45.626Z,12.30
2022-10-23T05:08:15.684Z,12.30
2022-10-23T05:10:45.108Z,12.30
2022-10-23T05:13:11.992Z,12.30
2022-10-23T05:15:38.894Z,12.30
2022-10-23T05:18:17.250Z,12.30
2022-10-23T05:20:46.113Z,12.30
2022-10-23T05:23:16.449Z,12.30
2022-10-23T05:25:43.421Z,12.30
2022-10-23T05:28:10.286Z,12.30
2022-10-23T05:30:38.417Z,12.20
2022-10-23T05:33:05.461Z,12.20
2022-10-23T05:35:32.401Z,12.20
2022-10-23T05:38:01.962Z,12.20
2022-10-23T05:40:29.047Z,12.20
2022-10-23T05:42:56.005Z,12.20
2022-10-23T05:45:22.930Z,12.20
2022-10-23T05:47:49.803Z,12.20
2022-10-23T05:50:16.845Z,12.30
2022-10-23T05:52:46.682Z,12.30
2022-10-23T05:55:13.681Z,12.30
2022-10-23T05:57:40.953Z,12.30
2022-10-23T06:00:08.833Z,12.30
2022-10-23T06:02:35.791Z,12.30
2022-10-23T06:05:02.917Z,12.30
2022-10-23T06:07:33.536Z,12.30
2022-10-23T06:10:03.362Z,12.30
2022-10-23T06:12:31.744Z,12.30
2022-10-23T06:14:58.986Z,12.40
2022-10-23T06:17:25.886Z,12.40
2022-10-23T06:19:52.799Z,12.40
2022-10-23T06:24:49.272Z,12.40
2022-10-23T06:27:16.155Z,12.50
2022-10-23T06:29:43.081Z,12.60
2022-10-23T06:32:09.943Z,12.60
2022-10-23T06:34:36.761Z,12.70
2022-10-23T06:37:03.602Z,12.70
2022-10-23T06:39:32.098Z,12.70
2022-10-23T06:41:59.339Z,12.80
2022-10-23T06:44:26.302Z,12.80
2022-10-23T06:46:53.259Z,12.90
2022-10-23T06:49:20.118Z,13.00
2022-10-23T06:51:47.017Z,13.00
2022-10-23T06:54:13.987Z,13.00
2022-10-23T06:56:40.909Z,13.00
2022-10-23T06:59:07.815Z,13.20
2022-10-23T07:01:35.984Z,13.20
2022-10-23T07:04:03.036Z,13.30
2022-10-23T07:06:29.887Z,13.40
2022-10-23T07:08:56.709Z,13.50
2022-10-23T07:11:23.627Z,13.60
2022-10-23T07:13:50.516Z,13.70
2022-10-23T07:16:19.891Z,13.70
2022-10-23T07:18:47.896Z,13.80
2022-10-23T07:21:14.940Z,13.90
2022-10-23T07:23:41.887Z,14.00
2022-10-23T07:26:14.351Z,14.10
2022-10-23T07:28:42.842Z,14.10
2022-10-23T07:31:10.024Z,14.30
2022-10-23T07:33:37.474Z,14.30
2022-10-23T07:36:06.652Z,14.40
2022-10-23T07:38:34.236Z,14.40
2022-10-23T07:41:01.799Z,14.50
2022-10-23T07:43:28.868Z,14.60
2022-10-23T07:45:56.053Z,14.70
2022-10-23T07:48:23.903Z,14.80
2022-10-23T07:50:51.159Z,14.90
2022-10-23T07:53:20.874Z,15.00
2022-10-23T07:55:55.911Z,15.10
2022-10-23T07:58:23.243Z,15.20
2022-10-23T08:01:02.499Z,15.30
2022-10-23T08:03:31.975Z,15.40
2022-10-23T08:05:59.674Z,15.50
2022-10-23T08:08:27.026Z,15.70
2022-10-23T08:10:55.606Z,15.80
2022-10-23T08:13:23.133Z,15.90
2022-10-23T08:15:51.689Z,15.90
2022-10-23T08:18:18.989Z,16.10
2022-10-23T08:20:47.966Z,16.20
2022-10-23T08:23:18.334Z,16.30
2022-10-23T08:25:45.925Z,16.40
2022-10-23T08:28:12.808Z,16.50
2022-10-23T08:30:39.649Z,16.60
2022-10-23T08:33:07.092Z,16.60
2022-10-23T08:35:40.414Z,16.80
2022-10-23T08:38:07.944Z,16.90
2022-10-23T08:40:35.916Z,17.00
2022-10-23T08:43:05.691Z,17.10
2022-10-23T08:45:45.966Z,17.20
2022-10-23T08:48:26.114Z,17.20
2022-10-23T08:50:59.459Z,17.30
2022-10-23T08:53:44.056Z,17.40
2022-10-23T08:56:48.497Z,17.50
2022-10-23T08:59:28.305Z,17.50
2022-10-23T09:02:04.219Z,17.60
2022-10-23T09:04:32.545Z,17.70
2022-10-23T09:09:58.033Z,17.90
2022-10-23T09:12:27.484Z,18.00
2022-10-23T09:15:12.749Z,18.10
2022-10-23T09:17:42.731Z,18.20
2022-10-23T09:20:25.570Z,18.30
2022-10-23T09:23:00.070Z,18.50
2022-10-23T09:25:34.930Z,18.60
2022-10-23T09:28:05.229Z,18.70
2022-10-23T09:30:37.507Z,18.80
2022-10-23T09:33:26.078Z,18.90
2022-10-23T09:36:05.510Z,18.90
2022-10-23T09:38:47.729Z,18.90
2022-10-23T09:41:18.271Z,19.00
2022-10-23T09:43:45.606Z,19.00
2022-10-23T09:46:12.562Z,19.00
2022-10-23T09:48:42.235Z,19.00
2022-10-23T09:51:20.711Z,19.00
2022-10-23T09:53:57.336Z,19.00
2022-10-23T09:56:31.674Z,19.10
2022-10-23T09:59:21.825Z,19.10
2022-10-23T10:01:55.633Z,19.10
2022-10-23T10:04:38.174Z,19.10
2022-10-23T10:07:36.070Z,19.10
2022-10-23T10:10:07.565Z,19.10
2022-10-23T10:12:49.736Z,19.10
2022-10-23T10:15:34.761Z,19.20
2022-10-23T10:18:25.986Z,19.10
2022-10-23T10:21:18.329Z,19.20
2022-10-23T10:24:02.542Z,19.30
2022-10-23T10:26:38.113Z,19.40
2022-10-23T10:29:04.930Z,19.40
2022-10-23T10:32:00.903Z,19.50
2022-10-23T10:34:43.166Z,19.60
2022-10-23T10:37:34.333Z,19.70
2022-10-23T10:40:16.532Z,19.80
2022-10-23T10:42:49.268Z,19.90
2022-10-23T10:45:24.926Z,19.90
2022-10-23T10:48:37.017Z,20.00
2022-10-23T10:51:14.537Z,20.10
2022-10-23T10:53:55.529Z,20.20
2022-10-23T10:56:25.191Z,20.30
2022-10-23T10:58:59.378Z,20.40
2022-10-23T11:01:49.357Z,20.40
2022-10-23T11:04:55.622Z,20.40
2022-10-23T11:07:28.377Z,20.50
2022-10-23T11:09:58.540Z,20.60
2022-10-23T11:12:27.992Z,20.60
2022-10-23T11:14:56.491Z,20.70
2022-10-23T11:17:35.405Z,20.70
2022-10-23T11:20:41.131Z,20.80
2022-10-23T11:23:29.893Z,20.90
2022-10-23T11:26:30.989Z,21.00
2022-10-23T11:29:25.237Z,21.10
2022-10-23T11:32:14.182Z,21.10
2022-10-23T11:35:22.787Z,21.10
2022-10-23T11:38:27.556Z,21.10
2022-10-23T11:41:02.169Z,21.20
2022-10-23T11:43:34.126Z,21.30
2022-10-23T11:46:35.332Z,21.30
2022-10-23T11:49:05.977Z,21.40
2022-10-23T11:51:38.559Z,21.30
2022-10-23T11:54:24.413Z,21.30
2022-10-23T11:57:17.288Z,21.40
2022-10-23T11:59:55.783Z,21.40
2022-10-23T12:02:42.377Z,21.40
2022-10-23T12:05:34.781Z,21.40
2022-10-23T12:08:03.394Z,21.40
2022-10-23T12:10:37.226Z,21.40
2022-10-23T12:13:32.042Z,21.40
2022-10-23T12:16:00.909Z,21.50
2022-10-23T12:18:28.626Z,21.50
2022-10-23T12:20:58.687Z,21.40
2022-10-23T12:23:34.802Z,21.50
2022-10-23T12:26:30.694Z,21.50
2022-10-23T12:29:11.877Z,21.40
2022-10-23T12:31:48.762Z,21.40
2022-10-23T12:34:24.333Z,21.50
2022-10-23T12:37:03.397Z,21.50
2022-10-23T12:39:32.195Z,21.50
2022-10-23T12:42:00.303Z,21.40
2022-10-23T12:44:27.892Z,21.40
2022-10-23T12:47:04.946Z,21.40
2022-10-23T12:49:34.176Z,21.40
2022-10-23T12:52:17.139Z,21.50
2022-10-23T12:54:44.114Z,21.50
2022-10-23T12:57:25.876Z,21.50
2022-10-23T13:00:00.687Z,21.50
2022-10-23T13:02:30.083Z,21.50
2022-10-23T13:05:00.851Z,21.50
2022-10-23T13:07:35.676Z,21.50
2022-10-23T13:10:04.049Z,21.50
2022-10-23T13:12:33.734Z,21.50
2022-10-23T13:15:06.433Z,21.40
2022-10-23T13:17:44.406Z,21.40
2022-10-23T13:20:17.644Z,21.40
2022-10-23T13:22:46.987Z,21.30
2022-10-23T13:25:21.525Z,21.20
2022-10-23T13:27:48.803Z,21.20
2022-10-23T13:30:33.608Z,21.20
2022-10-23T13:33:00.983Z,21.10
2022-10-23T13:35:27.884Z,21.10
2022-10-23T13:37:54.761Z,21.20
2022-10-23T13:40:27.249Z,21.10
2022-10-23T13:42:55.830Z,21.10
2022-10-23T13:45:24.880Z,21.10
2022-10-23T13:47:52.145Z,21.10
2022-10-23T13:50:19.986Z,21.00
2022-10-23T13:52:47.049Z,21.00
2022-10-23T13:55:25.249Z,21.00
2022-10-23T13:57:52.509Z,21.00
2022-10-23T14:00:19.683Z,20.90
2022-10-23T14:02:46.572Z,20.90
2022-10-23T14:05:13.666Z,20.90
2022-10-23T14:07:40.708Z,20.90
2022-10-23T14:10:07.924Z,20.80
2022-10-23T14:12:42.606Z,20.80
2022-10-23T14:15:11.053Z,20.70
2022-10-23T14:17:37.960Z,20.70
2022-10-23T14:20:06.399Z,20.60
2022-10-23T14:22:33.395Z,20.60
2022-10-23T14:25:00.247Z,20.50
2022-10-23T14:27:27.179Z,20.50
2022-10-23T14:29:54.121Z,20.50
2022-10-23T14:32:20.997Z,20.40
2022-10-23T14:34:52.732Z,20.40
2022-10-23T14:37:20.074Z,20.30
2022-10-23T14:39:49.932Z,20.20
2022-10-23T14:42:17.561Z,20.20
2022-10-23T14:44:44.899Z,20.20
2022-10-23T14:47:12.226Z,20.20
2022-10-23T14:49:40.160Z,20.10
2022-10-23T14:52:07.440Z,20.10
2022-10-23T14:54:36.345Z,20.10
2022-10-23T14:57:04.169Z,20.10
2022-10-23T14:59:31.256Z,20.00
2022-10-23T15:01:58.164Z,20.00
2022-10-23T15:04:25.498Z,19.90
2022-10-23T15:06:53.079Z,19.90
2022-10-23T15:09:20.234Z,19.90
2022-10-23T15:11:47.664Z,19.80
2022-10-23T15:14:14.950Z,19.80
2022-10-23T15:16:42.099Z,19.80
2022-10-23T15:19:17.364Z,19.70
2022-10-23T15:21:47.006Z,19.70
2022-10-23T15:24:14.726Z,19.60
2022-10-23T15:26:43.759Z,19.60
2022-10-23T15:29:11.421Z,19.50
2022-10-23T15:31:38.281Z,19.40
2022-10-23T15:34:06.544Z,19.40
2022-10-23T15:36:34.011Z,19.40
2022-10-23T15:39:01.521Z,19.30
2022-10-23T15:41:31.299Z,19.30
2022-10-23T15:43:59.586Z,19.30
2022-10-23T15:46:26.540Z,19.20
2022-10-23T15:48:53.695Z,19.20
2022-10-23T15:51:21.148Z,19.10
2022-10-23T15:53:48.602Z,19.10
2022-10-23T15:56:15.657Z,19.00
2022-10-23T16:02:03.484Z,19.00
2022-10-23T16:04:30.473Z,18.90
2022-10-23T16:06:57.430Z,18.90
2022-10-23T16:09:24.272Z,18.80
2022-10-23T16:11:51.144Z,18.70
2022-10-23T16:14:18.114Z,18.60
2022-10-23T16:16:44.996Z,18.50
2022-10-23T16:19:12.852Z,18.50
2022-10-23T16:21:40.183Z,18.50
2022-10-23T16:24:08.700Z,18.40
2022-10-23T16:26:36.827Z,18.40
2022-10-23T16:29:06.340Z,18.10
2022-10-23T16:31:33.765Z,18.30
2022-10-23T16:34:02.802Z,18.20
2022-10-23T16:36:29.841Z,18.10
2022-10-23T16:38:56.784Z,18.10
2022-10-23T16:41:23.701Z,18.10
2022-10-23T16:43:50.585Z,18.00
2022-10-23T16:46:20.464Z,18.00
2022-10-23T16:48:48.999Z,18.00
2022-10-23T16:51:21.953Z,17.90
2022-10-23T16:53:49.611Z,17.90
2022-10-23T16:56:21.598Z,17.80
2022-10-23T16:58:48.580Z,17.80
2022-10-23T17:01:26.638Z,17.70
2022-10-23T17:03:54.836Z,17.70
2022-10-23T17:06:24.640Z,17.70
2022-10-23T17:08:52.069Z,17.60
2022-10-23T17:11:21.664Z,17.60
2022-10-23T17:14:02.707Z,17.50
2022-10-23T17:16:38.911Z,17.60
2022-10-23T17:19:16.056Z,17.50
2022-10-23T17:21:48.292Z,17.60
2022-10-23T17:24:15.111Z,17.50
2022-10-23T17:26:42.270Z,17.50
2022-10-23T17:29:10.470Z,17.40
2022-10-23T17:31:39.963Z,17.40
2022-10-23T17:34:08.979Z,17.40
2022-10-23T17:36:39.211Z,17.40
2022-10-23T17:39:08.265Z,17.40
2022-10-23T17:41:35.559Z,17.40
2022-10-23T17:44:02.643Z,17.40
2022-10-23T17:46:29.848Z,17.30
2022-10-23T17:48:58.302Z,17.30
2022-10-23T17:51:27.177Z,17.30
2022-10-23T17:53:56.021Z,17.20
2022-10-23T17:56:24.883Z,17.20
2022-10-23T17:58:53.497Z,17.20
2022-10-23T18:01:26.185Z,17.20
2022-10-23T18:03:55.136Z,17.20
2022-10-23T18:06:29.666Z,17.20
2022-10-23T18:08:57.111Z,17.20
2022-10-23T18:11:26.897Z,17.30
2022-10-23T18:13:55.075Z,17.30
2022-10-23T18:16:21.986Z,17.30
2022-10-23T18:18:49.267Z,17.30
2022-10-23T18:21:17.369Z,17.30
2022-10-23T18:23:44.276Z,17.30
2022-10-23T18:26:16.730Z,17.30
2022-10-23T18:28:48.019Z,17.30
2022-10-23T18:31:16.331Z,17.30
2022-10-23T18:33:43.881Z,17.30
2022-10-23T18:36:22.703Z,17.40
2022-10-23T18:38:50.292Z,17.30
2022-10-23T18:41:17.871Z,17.30
2022-10-23T18:43:45.519Z,17.30
2022-10-23T18:46:13.875Z,17.20
2022-10-23T18:48:41.477Z,17.10
2022-10-23T18:51:26.159Z,17.00
2022-10-23T18:53:53.748Z,16.90
2022-10-23T18:56:23.725Z,16.80
2022-10-23T18:58:51.689Z,16.70
2022-10-23T19:01:19.629Z,16.60
2022-10-23T19:03:47.405Z,16.60
2022-10-23T19:06:15.233Z,16.50
2022-10-23T19:08:44.115Z,16.50
2022-10-23T19:11:12.418Z,16.50
2022-10-23T19:13:40.353Z,16.50
2022-10-23T19:16:19.448Z,16.40
2022-10-23T19:18:51.294Z,16.40
2022-10-23T19:21:21.949Z,16.50
2022-10-23T19:23:49.852Z,16.50
2022-10-23T19:26:17.472Z,16.50
2022-10-23T19:28:47.195Z,16.50
2022-10-23T19:31:14.317Z,16.50
2022-10-23T19:33:41.467Z,16.50
2022-10-23T19:36:12.660Z,16.50
2022-10-23T19:38:41.754Z,16.50
2022-10-23T19:41:09.074Z,16.50
2022-10-23T19:43:37.674Z,16.50
2022-10-23T19:46:09.258Z,16.50
2022-10-23T19:48:43.595Z,16.40
2022-10-23T19:51:13.155Z,16.40
2022-10-23T19:53:41.350Z,16.40
2022-10-23T19:56:10.978Z,16.40
2022-10-23T19:58:38.673Z,16.40
2022-10-23T20:01:15.282Z,16.40
2022-10-23T20:03:45.391Z,16.40
2022-10-23T20:06:14.941Z,16.40
2022-10-23T20:08:42.010Z,16.40
2022-10-23T20:11:10.539Z,16.40
2022-10-23T20:13:37.504Z,16.40
2022-10-23T20:16:04.577Z,16.40
2022-10-23T20:18:31.678Z,16.40
2022-10-23T20:21:02.705Z,16.40
2022-10-23T20:23:29.802Z,16.40
2022-10-23T20:26:04.642Z,16.40
2022-10-23T20:28:31.752Z,16.40
2022-10-23T20:30:58.613Z,16.40
2022-10-23T20:33:25.501Z,16.40
2022-10-23T20:35:52.840Z,16.30
2022-10-23T20:38:19.897Z,16.30
2022-10-23T20:40:46.827Z,16.20
2022-10-23T20:43:13.676Z,16.20
2022-10-23T20:45:40.527Z,16.20
2022-10-23T20:48:07.434Z,16.20
2022-10-23T20:50:35.141Z,16.20
2022-10-23T20:53:02.042Z,16.20
2022-10-23T20:55:28.857Z,16.10
2022-10-23T20:57:55.684Z,16.10
2022-10-23T21:00:22.570Z,16.10
2022-10-23T21:02:51.421Z,16.10
2022-10-23T21:05:19.364Z,16.10
2022-10-23T21:07:46.396Z,16.10
2022-10-23T21:10:13.352Z,16.10
2022-10-23T21:12:40.211Z,16.10
2022-10-23T21:15:07.923Z,16.10
2022-10-23T21:17:38.639Z,16.20
2022-10-23T21:20:05.977Z,16.10
2022-10-23T21:22:33.074Z,16.10
2022-10-23T21:25:01.646Z,16.10
2022-10-23T21:27:28.471Z,16.10
2022-10-23T21:29:55.320Z,16.10
2022-10-23T21:32:22.248Z,16.00
2022-10-23T21:34:49.331Z,16.00
2022-10-23T21:37:16.168Z,15.90
2022-10-23T21:39:44.035Z,15.90
2022-10-23T21:42:12.942Z,15.90
2022-10-23T21:44:39.973Z,15.90
2022-10-23T21:47:07.256Z,15.80
2022-10-23T21:49:34.245Z,15.80
2022-10-23T21:52:01.150Z,15.80
2022-10-23T21:54:28.044Z,15.70
2022-10-23T21:56:55.155Z,15.70
2022-10-23T21:59:28.837Z,15.70
2022-10-23T22:01:57.628Z,15.70
2022-10-23T22:04:24.635Z,15.70
2022-10-23T22:06:51.754Z,15.60
2022-10-23T22:09:20.976Z,15.60
2022-10-23T22:11:52.622Z,15.60
2022-10-23T22:14:19.724Z,15.50
2022-10-23T22:16:47.097Z,15.50
2022-10-23T22:19:15.743Z,15.50
2022-10-23T22:21:43.098Z,15.40
2022-10-23T22:24:10.234Z,15.40
2022-10-23T22:26:39.593Z,15.40
2022-10-23T22:29:09.911Z,15.40
2022-10-23T22:31:38.043Z,15.40
2022-10-23T22:34:18.710Z,15.30
2022-10-23T22:36:55.465Z,15.30
2022-10-23T22:39:23.153Z,15.20
2022-10-23T22:41:50.679Z,15.10
2022-10-23T22:44:18.064Z,15.20
2022-10-23T22:46:45.368Z,15.20
2022-10-23T22:49:12.640Z,15.20
2022-10-23T22:51:39.754Z,15.20
2022-10-23T22:54:07.557Z,15.20
2022-10-23T22:56:35.144Z,15.20
2022-10-23T22:59:02.350Z,15.20
2022-10-23T23:01:34.886Z,15.20
2022-10-23T23:04:13.747Z,15.20
2022-10-23T23:06:48.717Z,15.20
2022-10-23T23:09:18.096Z,15.20
2022-10-23T23:11:52.084Z,15.20
2022-10-23T23:14:23.291Z,15.20
2022-10-23T23:16:52.418Z,15.10
2022-10-23T23:19:19.821Z,15.10
2022-10-23T23:21:46.708Z,15.10
2022-10-23T23:24:13.618Z,15.10
2022-10-23T23:26:41.114Z,15.10
2022-10-23T23:29:07.949Z,15.00
2022-10-23T23:31:34.896Z,15.00
2022-10-23T23:34:01.804Z,15.00
2022-10-23T23:36:29.069Z,14.90
2022-10-23T23:38:57.527Z,14.90
2022-10-23T23:41:25.818Z,14.90
2022-10-23T23:43:54.801Z,14.90
2022-10-23T23:46:21.783Z,14.90
2022-10-23T23:48:49.798Z,14.90
2022-10-23T23:51:19.399Z,14.90
2022-10-23T23:53:46.554Z,14.90
2022-10-23T23:56:13.828Z,14.90
2022-10-23T23:58:40.945Z,14.90
